SDM6846 UNOO-UNKL
Flight info
| Callsign | SDM6846 |
|---|---|
| Flight time | N/A |
| Altitude | 35000 |
| Route | N0460F350 KOVEN B234 SZ G828 NN A300 RANET |
| Aircraft | A319/M-VGDW/C |
Departure
| Time | 2026-05-08 14:33 |
|---|---|
| Airport | Omsk Central Airport (UNOO) |
Arrival
| Time | N/A |
|---|---|
| Airport | Krasnoyarsk International Airport (UNKL) |
| Time | Latitude | Longitude | Altitude | Speed | Heading |
|---|---|---|---|---|---|
| 2026-05-08 14:17 | 54.96298 | 73.31956 | 291 ft | 0 kts | 136° |
| 2026-05-08 14:28 | 54.96297 | 73.31957 | 291 ft | 0 kts | 136° |
| 2026-05-08 14:28 | 54.96297 | 73.31958 | 291 ft | 0 kts | 136° |
| 2026-05-08 14:29 | 54.96273 | 73.32020 | 291 ft | 10 kts | 107° |
| 2026-05-08 14:29 | 54.96297 | 73.32137 | 289 ft | 12 kts | 41° |
| 2026-05-08 14:29 | 54.96378 | 73.32228 | 288 ft | 14 kts | 18° |
| 2026-05-08 14:29 | 54.96468 | 73.32287 | 288 ft | 13 kts | 56° |
| 2026-05-08 14:30 | 54.96496 | 73.32452 | 288 ft | 14 kts | 77° |
| 2026-05-08 14:30 | 54.96519 | 73.32634 | 288 ft | 15 kts | 78° |
| 2026-05-08 14:30 | 54.96542 | 73.32825 | 288 ft | 16 kts | 78° |
| 2026-05-08 14:30 | 54.96576 | 73.33015 | 288 ft | 16 kts | 51° |
| 2026-05-08 14:31 | 54.96684 | 73.33036 | 288 ft | 16 kts | 345° |
| 2026-05-08 14:31 | 54.96804 | 73.32982 | 286 ft | 18 kts | 345° |
| 2026-05-08 14:31 | 54.96933 | 73.32900 | 285 ft | 20 kts | 313° |
| 2026-05-08 14:32 | 54.96941 | 73.32736 | 288 ft | 0 kts | 256° |
| 2026-05-08 14:32 | 54.96939 | 73.32726 | 288 ft | 12 kts | 256° |
| 2026-05-08 14:32 | 54.96838 | 73.32082 | 288 ft | 95 kts | 253° |
| 2026-05-08 14:32 | 54.96604 | 73.30592 | 322 ft | 154 kts | 250° |
| 2026-05-08 14:33 | 54.96330 | 73.28741 | 946 ft | 160 kts | 252° |
| 2026-05-08 14:33 | 54.96045 | 73.26905 | 1766 ft | 161 kts | 251° |
| 2026-05-08 14:33 | 54.95771 | 73.25041 | 2582 ft | 164 kts | 256° |
| 2026-05-08 14:33 | 54.95542 | 73.23023 | 3194 ft | 180 kts | 258° |
| 2026-05-08 14:34 | 54.95293 | 73.20838 | 3751 ft | 194 kts | 257° |
| 2026-05-08 14:34 | 54.94993 | 73.18465 | 4254 ft | 211 kts | 256° |
| 2026-05-08 14:34 | 54.94647 | 73.15832 | 4684 ft | 235 kts | 256° |
| 2026-05-08 14:34 | 54.94265 | 73.12995 | 5248 ft | 254 kts | 256° |
| 2026-05-08 14:35 | 54.93850 | 73.09922 | 5854 ft | 270 kts | 256° |
| 2026-05-08 14:35 | 54.93412 | 73.06702 | 6670 ft | 278 kts | 256° |
| 2026-05-08 14:35 | 54.93125 | 73.03411 | 7456 ft | 287 kts | 272° |
| 2026-05-08 14:35 | 54.93677 | 73.00080 | 8299 ft | 292 kts | 302° |
| 2026-05-08 14:36 | 54.95049 | 72.97555 | 9272 ft | 292 kts | 329° |
| 2026-05-08 14:36 | 54.96904 | 72.96361 | 10133 ft | 292 kts | 355° |
| 2026-05-08 14:36 | 54.98929 | 72.96733 | 10840 ft | 300 kts | 22° |
| 2026-05-08 14:36 | 55.00775 | 72.98501 | 11437 ft | 314 kts | 33° |
| 2026-05-08 14:37 | 55.02665 | 73.00649 | 11839 ft | 333 kts | 34° |
| 2026-05-08 14:37 | 55.04651 | 73.02877 | 12311 ft | 349 kts | 33° |
| 2026-05-08 14:37 | 55.06696 | 73.05118 | 13073 ft | 356 kts | 32° |
| 2026-05-08 14:37 | 55.08782 | 73.07461 | 13871 ft | 361 kts | 38° |
| 2026-05-08 14:38 | 55.10479 | 73.10697 | 14697 ft | 365 kts | 59° |
| 2026-05-08 14:38 | 55.11415 | 73.14710 | 15492 ft | 367 kts | 77° |
| 2026-05-08 14:38 | 55.11906 | 73.19106 | 16230 ft | 371 kts | 80° |
| 2026-05-08 14:38 | 55.12339 | 73.23573 | 16967 ft | 377 kts | 80° |
| 2026-05-08 14:39 | 55.12777 | 73.28071 | 17620 ft | 382 kts | 79° |
| 2026-05-08 14:39 | 55.13234 | 73.32597 | 18296 ft | 386 kts | 79° |
| 2026-05-08 14:39 | 55.13714 | 73.37246 | 18938 ft | 391 kts | 79° |
| 2026-05-08 14:39 | 55.14133 | 73.41915 | 19553 ft | 396 kts | 84° |
| 2026-05-08 14:40 | 55.14144 | 73.46730 | 20131 ft | 401 kts | 95° |
| 2026-05-08 14:40 | 55.13662 | 73.51555 | 20712 ft | 405 kts | 105° |
| 2026-05-08 14:40 | 55.12898 | 73.56273 | 21241 ft | 408 kts | 107° |
| 2026-05-08 14:40 | 55.12067 | 73.61029 | 21755 ft | 413 kts | 107° |
| 2026-05-08 14:41 | 55.11237 | 73.65786 | 22232 ft | 417 kts | 108° |
| 2026-05-08 14:41 | 55.10409 | 73.70654 | 22717 ft | 422 kts | 108° |
| 2026-05-08 14:41 | 55.09587 | 73.75545 | 23159 ft | 426 kts | 108° |
| 2026-05-08 14:41 | 55.08750 | 73.80530 | 23610 ft | 431 kts | 108° |
| 2026-05-08 14:42 | 55.07904 | 73.85562 | 24079 ft | 434 kts | 108° |
| 2026-05-08 14:42 | 55.07044 | 73.90642 | 24525 ft | 439 kts | 108° |
| 2026-05-08 14:42 | 55.06179 | 73.95734 | 24968 ft | 442 kts | 108° |
| 2026-05-08 14:42 | 55.05307 | 74.00884 | 25410 ft | 446 kts | 107° |
| 2026-05-08 14:43 | 55.04715 | 74.06145 | 25817 ft | 450 kts | 97° |
| 2026-05-08 14:43 | 55.04620 | 74.11604 | 26231 ft | 454 kts | 86° |
| 2026-05-08 14:43 | 55.04987 | 74.17074 | 26656 ft | 457 kts | 81° |
| 2026-05-08 14:43 | 55.05501 | 74.22573 | 27068 ft | 459 kts | 80° |
| 2026-05-08 14:44 | 55.06030 | 74.28003 | 27465 ft | 462 kts | 79° |
| 2026-05-08 14:44 | 55.06559 | 74.33546 | 27839 ft | 466 kts | 80° |
| 2026-05-08 14:44 | 55.07076 | 74.39105 | 28219 ft | 468 kts | 80° |
| 2026-05-08 14:44 | 55.07587 | 74.44735 | 28605 ft | 471 kts | 80° |
| 2026-05-08 14:45 | 55.08091 | 74.50378 | 28956 ft | 474 kts | 80° |
| 2026-05-08 14:45 | 55.08590 | 74.56017 | 29285 ft | 477 kts | 80° |
| 2026-05-08 14:45 | 55.09093 | 74.61768 | 29606 ft | 481 kts | 81° |
| 2026-05-08 14:45 | 55.09589 | 74.67472 | 29966 ft | 483 kts | 81° |
| 2026-05-08 14:46 | 55.10091 | 74.73281 | 30448 ft | 482 kts | 81° |
| 2026-05-08 14:46 | 55.10577 | 74.78959 | 30937 ft | 480 kts | 82° |
| 2026-05-08 14:46 | 55.11066 | 74.84706 | 31402 ft | 479 kts | 82° |
| 2026-05-08 14:46 | 55.11554 | 74.90465 | 31861 ft | 478 kts | 82° |
| 2026-05-08 14:47 | 55.12035 | 74.96169 | 32321 ft | 477 kts | 82° |
| 2026-05-08 14:47 | 55.12513 | 75.01880 | 32762 ft | 476 kts | 82° |
| 2026-05-08 14:47 | 55.12983 | 75.07525 | 33183 ft | 475 kts | 82° |
| 2026-05-08 14:47 | 55.13456 | 75.13256 | 33572 ft | 475 kts | 82° |
| 2026-05-08 14:48 | 55.13921 | 75.18903 | 33913 ft | 476 kts | 82° |
| 2026-05-08 14:48 | 55.14386 | 75.24586 | 34227 ft | 477 kts | 82° |
| 2026-05-08 14:48 | 55.14852 | 75.30328 | 34526 ft | 478 kts | 82° |
| 2026-05-08 14:48 | 55.15317 | 75.36095 | 34770 ft | 479 kts | 82° |
| 2026-05-08 14:49 | 55.15773 | 75.41777 | 34919 ft | 481 kts | 81° |
| 2026-05-08 14:49 | 55.16236 | 75.47598 | 34934 ft | 481 kts | 82° |
| 2026-05-08 14:49 | 55.17144 | 75.59134 | 34943 ft | 480 kts | 82° |
| 2026-05-08 14:50 | 55.18049 | 75.70609 | 34947 ft | 481 kts | 82° |
| 2026-05-08 14:50 | 55.18975 | 75.82195 | 34946 ft | 481 kts | 82° |
| 2026-05-08 14:51 | 55.19882 | 75.93771 | 34949 ft | 482 kts | 82° |
| 2026-05-08 14:51 | 55.20776 | 76.05374 | 34950 ft | 482 kts | 82° |
| 2026-05-08 14:52 | 55.22094 | 76.22766 | 34954 ft | 484 kts | 82° |
| 2026-05-08 14:53 | 55.22962 | 76.34422 | 34955 ft | 484 kts | 82° |
| 2026-05-08 14:53 | 55.23815 | 76.46064 | 34957 ft | 484 kts | 81° |
| 2026-05-08 14:54 | 55.24659 | 76.57754 | 34959 ft | 484 kts | 82° |
| 2026-05-08 14:54 | 55.25485 | 76.69405 | 34960 ft | 485 kts | 82° |
| 2026-05-08 14:55 | 55.26305 | 76.81037 | 34965 ft | 485 kts | 82° |
| 2026-05-08 14:55 | 55.27121 | 76.92726 | 34967 ft | 484 kts | 82° |
| 2026-05-08 14:56 | 55.27919 | 77.04417 | 34967 ft | 485 kts | 82° |
| 2026-05-08 14:56 | 55.28701 | 77.16070 | 34968 ft | 485 kts | 82° |
| 2026-05-08 14:57 | 55.29472 | 77.27769 | 34969 ft | 486 kts | 82° |
| 2026-05-08 14:57 | 55.30232 | 77.39477 | 34968 ft | 487 kts | 82° |
| 2026-05-08 14:58 | 55.30986 | 77.51279 | 34971 ft | 488 kts | 82° |
| 2026-05-08 14:58 | 55.31730 | 77.63114 | 34973 ft | 488 kts | 82° |
| 2026-05-08 14:59 | 55.32454 | 77.74852 | 34972 ft | 488 kts | 83° |
| 2026-05-08 14:59 | 55.33527 | 77.92596 | 34971 ft | 489 kts | 82° |
| 2026-05-08 15:00 | 55.34226 | 78.04398 | 34967 ft | 489 kts | 83° |
| 2026-05-08 15:00 | 55.34911 | 78.16196 | 34968 ft | 489 kts | 83° |
| 2026-05-08 15:01 | 55.35765 | 78.28050 | 34970 ft | 489 kts | 77° |
| 2026-05-08 15:01 | 55.37358 | 78.39590 | 34969 ft | 486 kts | 70° |
| 2026-05-08 15:02 | 55.39388 | 78.50809 | 34971 ft | 486 kts | 69° |
| 2026-05-08 15:02 | 55.41453 | 78.62157 | 34978 ft | 487 kts | 69° |
| 2026-05-08 15:03 | 55.43471 | 78.73449 | 34985 ft | 489 kts | 70° |
| 2026-05-08 15:03 | 55.45484 | 78.84867 | 34994 ft | 489 kts | 70° |
| 2026-05-08 15:04 | 55.47483 | 78.96259 | 34997 ft | 490 kts | 70° |
| 2026-05-08 15:04 | 55.49487 | 79.07742 | 35001 ft | 490 kts | 70° |
| 2026-05-08 15:05 | 55.51463 | 79.19145 | 35003 ft | 490 kts | 70° |
| 2026-05-08 15:05 | 55.52813 | 79.26975 | 35004 ft | 490 kts | 70° |
| 2026-05-08 15:06 | 55.53884 | 79.33187 | 34997 ft | 489 kts | 70° |
| 2026-05-08 15:06 | 55.55831 | 79.44589 | 34995 ft | 489 kts | 70° |
| 2026-05-08 15:07 | 55.57774 | 79.56049 | 34995 ft | 489 kts | 70° |
| 2026-05-08 15:07 | 55.59705 | 79.67517 | 34990 ft | 489 kts | 71° |
| 2026-05-08 15:08 | 55.61301 | 79.77078 | 34991 ft | 489 kts | 70° |
| 2026-05-08 15:08 | 55.63538 | 79.90526 | 34992 ft | 489 kts | 70° |
| 2026-05-08 15:09 | 55.65462 | 80.01955 | 34990 ft | 489 kts | 70° |
| 2026-05-08 15:09 | 55.67390 | 80.13456 | 34990 ft | 490 kts | 70° |
| 2026-05-08 15:10 | 55.69313 | 80.25024 | 34988 ft | 490 kts | 70° |
| 2026-05-08 15:10 | 55.71211 | 80.36552 | 34988 ft | 490 kts | 69° |
| 2026-05-08 15:11 | 55.73110 | 80.48148 | 34994 ft | 490 kts | 69° |
| 2026-05-08 15:11 | 55.74988 | 80.59697 | 34999 ft | 490 kts | 70° |
| 2026-05-08 15:12 | 55.76853 | 80.71265 | 34992 ft | 490 kts | 70° |
| 2026-05-08 15:12 | 55.78700 | 80.82825 | 35000 ft | 489 kts | 70° |
| 2026-05-08 15:13 | 55.80552 | 80.94476 | 35001 ft | 489 kts | 70° |
| 2026-05-08 15:13 | 55.82381 | 81.06043 | 35007 ft | 489 kts | 70° |
| 2026-05-08 15:14 | 55.84206 | 81.17657 | 35012 ft | 490 kts | 70° |
| 2026-05-08 15:14 | 55.86017 | 81.29273 | 35014 ft | 489 kts | 70° |
| 2026-05-08 15:15 | 55.87810 | 81.40861 | 35019 ft | 489 kts | 70° |
| 2026-05-08 15:15 | 55.89610 | 81.52560 | 35019 ft | 489 kts | 70° |
| 2026-05-08 15:16 | 55.91386 | 81.64181 | 35021 ft | 489 kts | 70° |
| 2026-05-08 15:16 | 55.93150 | 81.75839 | 35019 ft | 490 kts | 71° |
| 2026-05-08 15:17 | 55.94909 | 81.87567 | 35018 ft | 490 kts | 70° |
| 2026-05-08 15:17 | 55.96648 | 81.99220 | 35018 ft | 489 kts | 70° |
| 2026-05-08 15:18 | 55.98385 | 82.10938 | 35018 ft | 489 kts | 70° |
| 2026-05-08 15:18 | 56.00095 | 82.22549 | 35016 ft | 487 kts | 70° |
| 2026-05-08 15:19 | 56.01808 | 82.34244 | 35017 ft | 485 kts | 70° |
| 2026-05-08 15:19 | 56.03490 | 82.45840 | 35020 ft | 485 kts | 71° |
| 2026-05-08 15:20 | 56.05167 | 82.57503 | 35020 ft | 484 kts | 70° |
| 2026-05-08 15:20 | 56.06827 | 82.69089 | 35021 ft | 484 kts | 71° |
| 2026-05-08 15:21 | 56.08398 | 82.80782 | 35016 ft | 485 kts | 73° |
| 2026-05-08 15:21 | 56.09895 | 82.92483 | 35024 ft | 484 kts | 73° |
| 2026-05-08 15:22 | 56.11408 | 83.04134 | 35023 ft | 484 kts | 73° |
| 2026-05-08 15:22 | 56.12911 | 83.15804 | 35021 ft | 484 kts | 73° |
| 2026-05-08 15:23 | 56.14392 | 83.27559 | 35021 ft | 484 kts | 73° |
| 2026-05-08 15:23 | 56.15866 | 83.39195 | 35017 ft | 483 kts | 72° |
| 2026-05-08 15:24 | 56.17435 | 83.50862 | 35024 ft | 483 kts | 72° |
| 2026-05-08 15:24 | 56.19001 | 83.62598 | 35025 ft | 482 kts | 72° |
| 2026-05-08 15:25 | 56.20528 | 83.74275 | 35023 ft | 482 kts | 73° |
| 2026-05-08 15:25 | 56.22034 | 83.85936 | 35021 ft | 482 kts | 73° |
| 2026-05-08 15:26 | 56.23530 | 83.97579 | 35021 ft | 482 kts | 73° |
| 2026-05-08 15:26 | 56.25014 | 84.09258 | 35024 ft | 481 kts | 73° |
| 2026-05-08 15:27 | 56.26482 | 84.21022 | 35022 ft | 482 kts | 73° |
| 2026-05-08 15:27 | 56.27922 | 84.32697 | 35022 ft | 482 kts | 73° |
| 2026-05-08 15:28 | 56.29355 | 84.44422 | 35020 ft | 482 kts | 73° |
| 2026-05-08 15:28 | 56.30773 | 84.56121 | 35018 ft | 482 kts | 73° |
| 2026-05-08 15:29 | 56.32192 | 84.67937 | 35016 ft | 482 kts | 74° |
| 2026-05-08 15:29 | 56.33588 | 84.79699 | 35013 ft | 482 kts | 74° |
| 2026-05-08 15:30 | 56.34968 | 84.91444 | 35012 ft | 481 kts | 74° |
| 2026-05-08 15:30 | 56.36333 | 85.03159 | 35015 ft | 481 kts | 74° |
| 2026-05-08 15:31 | 56.37660 | 85.14954 | 35020 ft | 482 kts | 76° |
| 2026-05-08 15:31 | 56.38388 | 85.26948 | 35017 ft | 487 kts | 84° |
| 2026-05-08 15:32 | 56.38419 | 85.39101 | 35022 ft | 487 kts | 88° |
| 2026-05-08 15:32 | 56.38338 | 85.51257 | 35018 ft | 487 kts | 88° |
| 2026-05-08 15:33 | 56.38268 | 85.63412 | 35017 ft | 487 kts | 87° |
| 2026-05-08 15:33 | 56.38197 | 85.75562 | 35023 ft | 488 kts | 88° |
| 2026-05-08 15:34 | 56.38115 | 85.87766 | 35025 ft | 487 kts | 88° |
| 2026-05-08 15:34 | 56.38023 | 85.99892 | 35028 ft | 487 kts | 88° |
| 2026-05-08 15:35 | 56.37949 | 86.12112 | 35026 ft | 487 kts | 88° |
| 2026-05-08 15:35 | 56.37869 | 86.24259 | 35025 ft | 486 kts | 88° |
| 2026-05-08 15:36 | 56.37769 | 86.36453 | 35025 ft | 487 kts | 88° |
| 2026-05-08 15:36 | 56.37657 | 86.48574 | 35024 ft | 487 kts | 88° |
| 2026-05-08 15:37 | 56.37530 | 86.60766 | 35025 ft | 488 kts | 88° |
| 2026-05-08 15:37 | 56.37393 | 86.72974 | 35023 ft | 488 kts | 89° |
| 2026-05-08 15:38 | 56.37242 | 86.85166 | 35023 ft | 488 kts | 88° |
| 2026-05-08 15:38 | 56.37080 | 86.97299 | 35023 ft | 488 kts | 88° |
| 2026-05-08 15:39 | 56.36905 | 87.09475 | 35022 ft | 489 kts | 88° |
| 2026-05-08 15:39 | 56.36719 | 87.21732 | 35020 ft | 489 kts | 88° |
| 2026-05-08 15:40 | 56.36520 | 87.33932 | 35015 ft | 488 kts | 88° |
| 2026-05-08 15:40 | 56.36311 | 87.46046 | 35014 ft | 488 kts | 88° |
| 2026-05-08 15:41 | 56.36089 | 87.58253 | 35015 ft | 488 kts | 88° |
| 2026-05-08 15:41 | 56.35854 | 87.70418 | 35011 ft | 488 kts | 89° |
| 2026-05-08 15:42 | 56.35610 | 87.82546 | 35018 ft | 488 kts | 89° |
| 2026-05-08 15:42 | 56.35351 | 87.94772 | 35019 ft | 488 kts | 89° |
| 2026-05-08 15:43 | 56.35083 | 88.06873 | 35013 ft | 489 kts | 89° |
| 2026-05-08 15:43 | 56.34799 | 88.19117 | 35007 ft | 489 kts | 89° |
| 2026-05-08 15:44 | 56.34506 | 88.31265 | 35000 ft | 489 kts | 89° |
| 2026-05-08 15:44 | 56.34197 | 88.43440 | 34999 ft | 489 kts | 90° |
| 2026-05-08 15:45 | 56.33879 | 88.55572 | 34803 ft | 483 kts | 90° |
| 2026-05-08 15:45 | 56.33715 | 88.61606 | 34222 ft | 482 kts | 89° |
| 2026-05-08 15:45 | 56.33549 | 88.67642 | 33601 ft | 481 kts | 90° |
| 2026-05-08 15:46 | 56.33382 | 88.73570 | 33017 ft | 480 kts | 90° |
| 2026-05-08 15:46 | 56.33211 | 88.79530 | 32350 ft | 479 kts | 90° |
| 2026-05-08 15:46 | 56.33036 | 88.85522 | 31632 ft | 480 kts | 90° |
| 2026-05-08 15:46 | 56.32863 | 88.91518 | 30879 ft | 481 kts | 90° |
| 2026-05-08 15:47 | 56.32704 | 88.97534 | 30080 ft | 482 kts | 90° |
| 2026-05-08 15:47 | 56.32549 | 89.03529 | 29383 ft | 481 kts | 90° |
| 2026-05-08 15:47 | 56.32391 | 89.09536 | 29028 ft | 482 kts | 90° |
| 2026-05-08 15:47 | 56.32228 | 89.15501 | 28986 ft | 482 kts | 90° |
| 2026-05-08 15:48 | 56.31711 | 89.33488 | 28983 ft | 482 kts | 90° |
| 2026-05-08 15:49 | 56.31348 | 89.45489 | 28981 ft | 482 kts | 90° |
| 2026-05-08 15:49 | 56.30975 | 89.57483 | 28980 ft | 482 kts | 90° |
| 2026-05-08 15:50 | 56.30589 | 89.69532 | 28980 ft | 482 kts | 91° |
| 2026-05-08 15:50 | 56.30192 | 89.81487 | 28979 ft | 482 kts | 91° |
| 2026-05-08 15:51 | 56.29784 | 89.93459 | 28980 ft | 482 kts | 91° |
| 2026-05-08 15:51 | 56.29364 | 90.05437 | 28982 ft | 482 kts | 91° |
| 2026-05-08 15:52 | 56.28932 | 90.17352 | 28447 ft | 473 kts | 91° |
| 2026-05-08 15:52 | 56.28716 | 90.23199 | 27743 ft | 471 kts | 91° |
| 2026-05-08 15:52 | 56.28499 | 90.29017 | 27095 ft | 467 kts | 91° |
| 2026-05-08 15:52 | 56.28283 | 90.34739 | 26488 ft | 462 kts | 91° |
| 2026-05-08 15:53 | 56.28063 | 90.40440 | 25886 ft | 458 kts | 92° |
| 2026-05-08 15:53 | 56.27840 | 90.46103 | 25281 ft | 453 kts | 92° |
| 2026-05-08 15:53 | 56.27618 | 90.51756 | 24669 ft | 449 kts | 92° |
| 2026-05-08 15:53 | 56.27399 | 90.57246 | 24082 ft | 444 kts | 92° |
| 2026-05-08 15:54 | 56.27294 | 90.62748 | 23512 ft | 438 kts | 87° |
| 2026-05-08 15:54 | 56.27384 | 90.68181 | 22921 ft | 433 kts | 86° |
| 2026-05-08 15:54 | 56.27518 | 90.73525 | 22310 ft | 427 kts | 85° |
| 2026-05-08 15:54 | 56.27657 | 90.78870 | 21621 ft | 425 kts | 85° |
| 2026-05-08 15:55 | 56.27745 | 90.82430 | 21222 ft | 423 kts | 85° |
| 2026-05-08 15:55 | 56.27840 | 90.86390 | 20817 ft | 420 kts | 85° |
| 2026-05-08 15:55 | 56.27956 | 90.91541 | 20280 ft | 416 kts | 86° |
| 2026-05-08 15:56 | 56.28068 | 90.96722 | 19724 ft | 413 kts | 86° |
| 2026-05-08 15:56 | 56.28175 | 91.01843 | 19220 ft | 408 kts | 86° |
| 2026-05-08 15:56 | 56.28280 | 91.06926 | 18989 ft | 406 kts | 86° |
| 2026-05-08 15:56 | 56.28345 | 91.11923 | 18973 ft | 407 kts | 89° |
| 2026-05-08 15:57 | 56.28146 | 91.17055 | 18975 ft | 408 kts | 95° |
| 2026-05-08 15:57 | 56.27770 | 91.22065 | 18971 ft | 408 kts | 97° |
| 2026-05-08 15:57 | 56.27345 | 91.27098 | 18977 ft | 408 kts | 97° |
| 2026-05-08 15:57 | 56.26917 | 91.32101 | 18731 ft | 403 kts | 97° |
| 2026-05-08 15:58 | 56.26497 | 91.37048 | 17946 ft | 408 kts | 97° |
| 2026-05-08 15:58 | 56.26078 | 91.42058 | 17486 ft | 403 kts | 97° |
| 2026-05-08 15:58 | 56.25661 | 91.47065 | 16665 ft | 408 kts | 97° |
| 2026-05-08 15:58 | 56.25242 | 91.52091 | 16040 ft | 407 kts | 97° |
| 2026-05-08 15:59 | 56.24823 | 91.57078 | 15523 ft | 403 kts | 97° |
| 2026-05-08 15:59 | 56.24410 | 91.61975 | 15006 ft | 400 kts | 97° |
| 2026-05-08 15:59 | 56.24020 | 91.66866 | 14475 ft | 396 kts | 95° |
| 2026-05-08 15:59 | 56.24111 | 91.71794 | 13892 ft | 392 kts | 80° |
| 2026-05-08 16:00 | 56.24609 | 91.76524 | 13382 ft | 387 kts | 77° |
| 2026-05-08 16:00 | 56.25174 | 91.81226 | 12828 ft | 384 kts | 76° |
| 2026-05-08 16:00 | 56.25731 | 91.85838 | 12269 ft | 381 kts | 76° |
| 2026-05-08 16:00 | 56.26273 | 91.90453 | 11710 ft | 378 kts | 77° |
| 2026-05-08 16:01 | 56.26800 | 91.95051 | 11146 ft | 375 kts | 77° |
| 2026-05-08 16:01 | 56.27315 | 91.99622 | 10578 ft | 371 kts | 77° |
| 2026-05-08 16:01 | 56.27511 | 92.01371 | 10466 ft | 366 kts | 77° |
| 2026-05-08 16:01 | 56.27999 | 92.05773 | 10113 ft | 357 kts | 77° |
| 2026-05-08 16:02 | 56.28476 | 92.10081 | 9748 ft | 348 kts | 77° |
| 2026-05-08 16:02 | 56.28944 | 92.14323 | 9428 ft | 340 kts | 77° |
| 2026-05-08 16:02 | 56.29343 | 92.18431 | 9126 ft | 331 kts | 83° |
| 2026-05-08 16:02 | 56.29378 | 92.22491 | 8908 ft | 321 kts | 93° |
| 2026-05-08 16:03 | 56.29157 | 92.26446 | 8729 ft | 311 kts | 96° |
| 2026-05-08 16:03 | 56.28892 | 92.30224 | 8435 ft | 305 kts | 96° |
| 2026-05-08 16:03 | 56.28628 | 92.33980 | 8040 ft | 304 kts | 96° |
| 2026-05-08 16:03 | 56.28373 | 92.37754 | 7643 ft | 302 kts | 95° |
| 2026-05-08 16:04 | 56.28131 | 92.41459 | 7281 ft | 299 kts | 95° |
| 2026-05-08 16:04 | 56.27895 | 92.45142 | 6902 ft | 298 kts | 95° |
| 2026-05-08 16:04 | 56.27657 | 92.48835 | 6520 ft | 296 kts | 95° |
| 2026-05-08 16:04 | 56.27421 | 92.52461 | 6158 ft | 294 kts | 95° |
| 2026-05-08 16:05 | 56.27185 | 92.56089 | 5798 ft | 291 kts | 95° |
| 2026-05-08 16:05 | 56.26947 | 92.59713 | 5464 ft | 288 kts | 95° |
| 2026-05-08 16:05 | 56.26716 | 92.63219 | 5289 ft | 279 kts | 95° |
| 2026-05-08 16:05 | 56.26440 | 92.66587 | 5119 ft | 270 kts | 102° |
| 2026-05-08 16:06 | 56.25914 | 92.69748 | 4962 ft | 262 kts | 110° |
| 2026-05-08 16:06 | 56.25218 | 92.72755 | 4755 ft | 256 kts | 113° |
| 2026-05-08 16:06 | 56.24506 | 92.75648 | 4400 ft | 256 kts | 113° |
| 2026-05-08 16:06 | 56.23777 | 92.78610 | 3868 ft | 265 kts | 112° |
| 2026-05-08 16:07 | 56.23000 | 92.81622 | 3525 ft | 263 kts | 120° |
| 2026-05-08 16:07 | 56.21713 | 92.83817 | 3190 ft | 253 kts | 156° |
| 2026-05-08 16:07 | 56.20015 | 92.84150 | 3033 ft | 253 kts | 196° |
| 2026-05-08 16:07 | 56.18456 | 92.82951 | 3030 ft | 233 kts | 208° |
| 2026-05-08 16:08 | 56.17081 | 92.81699 | 3015 ft | 216 kts | 208° |
| 2026-05-08 16:08 | 56.15736 | 92.80533 | 3020 ft | 215 kts | 207° |
| 2026-05-08 16:08 | 56.14381 | 92.79419 | 3025 ft | 213 kts | 206° |
| 2026-05-08 16:08 | 56.13091 | 92.78399 | 3006 ft | 195 kts | 206° |
| 2026-05-08 16:09 | 56.11840 | 92.77421 | 3016 ft | 194 kts | 206° |
| 2026-05-08 16:09 | 56.11060 | 92.76690 | 3005 ft | 192 kts | 223° |
| 2026-05-08 16:09 | 56.10327 | 92.74008 | 3063 ft | 183 kts | 275° |
| 2026-05-08 16:09 | 56.10772 | 92.71946 | 3045 ft | 180 kts | 307° |
| 2026-05-08 16:10 | 56.11576 | 92.70235 | 3035 ft | 181 kts | 313° |
| 2026-05-08 16:10 | 56.12393 | 92.68478 | 2912 ft | 181 kts | 307° |
| 2026-05-08 16:10 | 56.13037 | 92.66640 | 2673 ft | 170 kts | 300° |
| 2026-05-08 16:10 | 56.13560 | 92.64860 | 2469 ft | 156 kts | 297° |
| 2026-05-08 16:11 | 56.14010 | 92.63174 | 2255 ft | 144 kts | 294° |
| 2026-05-08 16:11 | 56.14390 | 92.61602 | 2052 ft | 130 kts | 293° |
| 2026-05-08 16:11 | 56.14732 | 92.60145 | 1889 ft | 128 kts | 294° |
| 2026-05-08 16:11 | 56.15080 | 92.58665 | 1730 ft | 128 kts | 293° |
| 2026-05-08 16:12 | 56.15422 | 92.57211 | 1565 ft | 127 kts | 294° |
| 2026-05-08 16:12 | 56.15767 | 92.55759 | 1403 ft | 127 kts | 295° |
| 2026-05-08 16:12 | 56.16113 | 92.54307 | 1237 ft | 127 kts | 291° |